LFBF 041530Z AUTO 04003KT 010V070 CAVOK 26/11 Q1020

ElémentsDécodage
LFBF Station météo située sur l'aérodrome de TOULOUSE Francazal
041530Z émis le 04 du mois à 15h30 UTC
AUTO Bulletin édité par un automate
04003KT vent du 040°, 03 noeuds
010V070 vent de direction variable entre 010° et 070°
CAVOK Ceiling And Visibility OK
- Visibilité de 10 Km ou plus
- Pas de nuage au-dessous de 1500m ou au-dessous de l'altitude minimale du secteur la plus élevée (si>1500m) et absence de CB
- pas de temps présent significatif
26/11 température 26°C, point de rosée 11°C
 soit une humidité relative de 39%
Q1020 la pression au niveau de la mer (QNH) est de 1020 hPa